createdAt,value
2019-03-13T00:01:25.545Z,10.40
2019-03-13T00:03:53.582Z,10.30
2019-03-13T00:06:21.903Z,10.20
2019-03-13T00:08:49.859Z,10.20
2019-03-13T00:11:17.766Z,10.10
2019-03-13T00:13:46.281Z,10.00
2019-03-13T00:16:20.491Z,9.90
2019-03-13T00:18:48.481Z,9.80
2019-03-13T00:21:16.528Z,9.70
2019-03-13T00:23:44.570Z,9.60
2019-03-13T00:26:12.473Z,9.50
2019-03-13T00:28:40.898Z,9.40
2019-03-13T00:31:08.900Z,9.30
2019-03-13T00:33:36.817Z,9.30
2019-03-13T00:36:05.424Z,9.10
2019-03-13T00:38:33.493Z,9.10
2019-03-13T00:41:01.456Z,9.10
2019-03-13T00:43:30.156Z,9.10
2019-03-13T00:46:00.688Z,9.10
2019-03-13T00:48:30.163Z,9.00
2019-03-13T00:50:58.368Z,9.00
2019-03-13T00:53:26.327Z,9.00
2019-03-13T00:55:54.429Z,8.90
2019-03-13T00:58:25.174Z,8.90
2019-03-13T01:01:17.550Z,8.90
2019-03-13T01:04:08.363Z,8.90
2019-03-13T01:06:39.906Z,8.70
2019-03-13T01:09:08.681Z,8.70
2019-03-13T01:11:38.167Z,8.60
2019-03-13T01:14:06.714Z,8.60
2019-03-13T01:16:36.171Z,8.50
2019-03-13T01:19:05.073Z,8.60
2019-03-13T01:21:35.278Z,8.60
2019-03-13T01:24:04.613Z,8.50
2019-03-13T01:26:34.760Z,8.40
2019-03-13T01:29:03.305Z,8.30
2019-03-13T01:31:41.966Z,8.20
2019-03-13T01:34:23.070Z,8.10
2019-03-13T01:36:51.665Z,8.00
2019-03-13T01:39:19.632Z,8.00
2019-03-13T01:41:47.576Z,8.00
2019-03-13T01:44:15.456Z,7.90
2019-03-13T01:46:43.728Z,7.80
2019-03-13T01:49:11.613Z,7.90
2019-03-13T01:51:39.523Z,7.90
2019-03-13T01:54:07.382Z,7.80
2019-03-13T01:56:35.275Z,7.80
2019-03-13T01:59:03.611Z,7.90
2019-03-13T02:01:32.345Z,7.90
2019-03-13T02:04:01.253Z,8.00
2019-03-13T02:06:30.602Z,8.00
2019-03-13T02:08:58.986Z,8.00
2019-03-13T02:11:27.345Z,8.00
2019-03-13T02:13:55.487Z,8.00
2019-03-13T02:16:23.508Z,8.00
2019-03-13T02:18:51.547Z,7.90
2019-03-13T02:21:19.527Z,7.90
2019-03-13T02:23:47.482Z,8.00
2019-03-13T02:26:17.228Z,8.00
2019-03-13T02:28:46.514Z,7.90
2019-03-13T02:31:14.965Z,7.90
2019-03-13T02:33:44.043Z,7.90
2019-03-13T02:36:12.050Z,7.90
2019-03-13T02:38:40.135Z,7.80
2019-03-13T02:41:08.098Z,7.80
2019-03-13T02:43:36.043Z,7.80
2019-03-13T02:46:04.131Z,7.80
2019-03-13T02:48:33.760Z,7.70
2019-03-13T02:51:01.691Z,7.70
2019-03-13T02:53:29.963Z,7.70
2019-03-13T02:55:57.889Z,7.60
2019-03-13T02:58:26.206Z,7.60
2019-03-13T03:01:04.561Z,7.70
2019-03-13T03:03:35.710Z,7.70
2019-03-13T03:06:04.109Z,7.50
2019-03-13T03:08:32.157Z,7.50
2019-03-13T03:11:00.093Z,7.60
2019-03-13T03:13:28.624Z,7.60
2019-03-13T03:15:56.724Z,7.60
2019-03-13T03:18:25.259Z,7.60
2019-03-13T03:20:53.319Z,7.60
2019-03-13T03:23:21.719Z,7.60
2019-03-13T03:25:49.580Z,7.60
2019-03-13T03:28:18.424Z,7.60
2019-03-13T03:30:49.004Z,7.60
2019-03-13T03:33:17.229Z,7.50
2019-03-13T03:35:45.081Z,7.50
2019-03-13T03:38:13.010Z,7.50
2019-03-13T03:40:41.329Z,7.50
2019-03-13T03:43:09.465Z,7.50
2019-03-13T03:45:38.102Z,7.60
2019-03-13T03:48:06.052Z,7.60
2019-03-13T03:50:34.536Z,7.60
2019-03-13T03:53:02.519Z,7.60
2019-03-13T03:55:31.186Z,7.60
2019-03-13T03:57:59.267Z,7.60
2019-03-13T04:00:28.010Z,7.70
2019-03-13T04:02:57.427Z,7.60
2019-03-13T04:05:25.555Z,7.50
2019-03-13T04:07:53.533Z,7.60
2019-03-13T04:10:22.434Z,7.60
2019-03-13T04:12:50.784Z,7.60
2019-03-13T04:15:20.618Z,7.60
2019-03-13T04:17:48.600Z,7.60
2019-03-13T04:20:37.222Z,7.60
2019-03-13T04:23:05.921Z,7.60
2019-03-13T04:25:37.997Z,7.60
2019-03-13T04:28:07.739Z,7.50
2019-03-13T04:30:35.930Z,7.50
2019-03-13T04:33:03.916Z,7.50
2019-03-13T04:35:32.237Z,7.40
2019-03-13T04:38:00.375Z,7.40
2019-03-13T04:40:28.254Z,7.10
2019-03-13T04:42:56.182Z,6.90
2019-03-13T04:45:24.304Z,6.80
2019-03-13T04:47:52.252Z,6.70
2019-03-13T04:50:20.252Z,6.60
2019-03-13T04:52:48.201Z,6.60
2019-03-13T04:55:16.630Z,6.50
2019-03-13T04:57:44.541Z,6.50
2019-03-13T05:00:13.072Z,6.40
2019-03-13T05:02:41.132Z,6.40
2019-03-13T05:05:47.111Z,6.40
2019-03-13T05:08:44.091Z,6.50
2019-03-13T05:11:01.813Z,6.60
2019-03-13T05:13:29.786Z,6.60
2019-03-13T05:15:58.127Z,6.70
2019-03-13T05:18:26.342Z,6.80
2019-03-13T05:20:54.870Z,6.80
2019-03-13T05:23:22.739Z,6.80
2019-03-13T05:25:50.813Z,6.90
2019-03-13T05:28:18.724Z,6.90
2019-03-13T05:30:46.777Z,7.00
2019-03-13T05:33:14.679Z,7.00
2019-03-13T05:35:42.889Z,7.00
2019-03-13T05:38:11.274Z,7.00
2019-03-13T05:40:39.447Z,7.10
2019-03-13T05:43:07.886Z,7.20
2019-03-13T05:45:36.294Z,7.20
2019-03-13T05:48:04.242Z,7.10
2019-03-13T05:50:32.421Z,7.10
2019-03-13T05:53:00.352Z,7.10
2019-03-13T05:55:28.483Z,7.10
2019-03-13T05:57:57.261Z,7.20
2019-03-13T06:00:27.316Z,7.20
2019-03-13T06:02:55.635Z,7.20
2019-03-13T06:05:23.616Z,7.20
2019-03-13T06:07:51.624Z,7.30
2019-03-13T06:10:19.712Z,7.20
2019-03-13T06:12:48.056Z,7.30
2019-03-13T06:15:15.952Z,7.20
2019-03-13T06:17:43.975Z,7.10
2019-03-13T06:20:12.160Z,7.10
2019-03-13T06:22:40.379Z,7.10
2019-03-13T06:25:09.774Z,6.90
2019-03-13T06:27:38.059Z,6.90
2019-03-13T06:30:08.061Z,6.80
2019-03-13T06:32:36.557Z,6.80
2019-03-13T06:35:05.273Z,6.80
2019-03-13T06:37:33.390Z,6.80
2019-03-13T06:40:02.217Z,6.70
2019-03-13T06:42:30.125Z,6.80
2019-03-13T06:44:58.168Z,6.90
2019-03-13T06:47:26.107Z,7.00
2019-03-13T06:49:54.225Z,7.20
2019-03-13T06:52:22.414Z,7.40
2019-03-13T06:54:50.536Z,7.40
2019-03-13T06:57:18.446Z,7.40
2019-03-13T07:00:04.654Z,7.30
2019-03-13T07:02:43.043Z,7.30
2019-03-13T07:05:24.095Z,7.40
2019-03-13T07:08:14.333Z,7.40
2019-03-13T07:11:16.970Z,7.40
2019-03-13T07:13:59.903Z,7.40
2019-03-13T07:16:50.403Z,7.50
2019-03-13T07:19:40.939Z,7.70
2019-03-13T07:22:50.809Z,7.90
2019-03-13T07:25:34.436Z,8.10
2019-03-13T07:28:13.774Z,8.00
2019-03-13T07:31:06.977Z,7.90
2019-03-13T07:33:52.965Z,7.90
2019-03-13T07:36:27.936Z,7.70
2019-03-13T07:39:24.709Z,7.80
2019-03-13T07:42:04.890Z,7.80
2019-03-13T07:44:51.060Z,7.90
2019-03-13T07:47:44.773Z,7.90
2019-03-13T07:50:20.483Z,7.90
2019-03-13T07:53:07.923Z,7.70
2019-03-13T07:56:04.847Z,7.70
2019-03-13T07:58:49.795Z,7.90
2019-03-13T08:01:29.820Z,7.80
2019-03-13T08:04:05.065Z,8.00
2019-03-13T08:07:01.405Z,8.10
2019-03-13T08:09:52.410Z,8.10
2019-03-13T08:12:39.309Z,8.10
2019-03-13T08:15:21.810Z,8.10
2019-03-13T08:18:27.756Z,8.20
2019-03-13T08:21:18.765Z,8.10
2019-03-13T08:24:06.387Z,8.00
2019-03-13T08:26:57.444Z,8.00
2019-03-13T08:29:47.771Z,8.20
2019-03-13T08:32:33.235Z,8.30
2019-03-13T08:35:12.520Z,8.00
2019-03-13T08:37:47.728Z,7.90
2019-03-13T08:40:34.505Z,7.90
2019-03-13T08:43:14.234Z,7.70
2019-03-13T08:46:02.449Z,7.70
2019-03-13T08:48:53.116Z,7.80
2019-03-13T08:51:36.822Z,7.80
2019-03-13T08:54:33.383Z,8.40
2019-03-13T08:57:26.640Z,8.90
2019-03-13T09:00:27.212Z,9.20
2019-03-13T09:03:23.977Z,9.20
2019-03-13T09:06:29.852Z,9.40
2019-03-13T09:09:20.096Z,9.40
2019-03-13T09:12:03.404Z,9.70
2019-03-13T09:14:57.035Z,9.80
2019-03-13T09:17:47.961Z,9.90
2019-03-13T09:20:25.656Z,9.70
2019-03-13T09:23:15.042Z,9.40
2019-03-13T09:26:14.729Z,9.20
2019-03-13T09:29:01.156Z,9.20
2019-03-13T09:31:40.393Z,9.00
2019-03-13T09:34:46.415Z,9.20
2019-03-13T09:37:36.963Z,9.40
2019-03-13T09:40:15.274Z,9.10
2019-03-13T09:42:51.371Z,9.10
2019-03-13T09:45:41.696Z,9.30
2019-03-13T09:48:32.252Z,9.70
2019-03-13T09:51:16.104Z,9.70
2019-03-13T09:54:03.995Z,9.50
2019-03-13T09:56:47.916Z,9.40
2019-03-13T09:59:45.341Z,9.30
2019-03-13T10:02:27.086Z,9.30
2019-03-13T10:05:12.999Z,9.40
2019-03-13T10:07:59.224Z,9.60
2019-03-13T10:10:59.012Z,9.90
2019-03-13T10:13:45.798Z,9.70
2019-03-13T10:16:36.743Z,9.80
2019-03-13T10:19:21.595Z,9.90
2019-03-13T10:22:04.798Z,9.70
2019-03-13T10:24:52.809Z,9.60
2019-03-13T10:27:39.584Z,9.40
2019-03-13T10:30:32.397Z,9.40
2019-03-13T10:33:24.174Z,9.60
2019-03-13T10:36:01.637Z,9.90
2019-03-13T10:38:52.014Z,9.80
2019-03-13T10:41:45.501Z,9.60
2019-03-13T10:44:31.819Z,9.70
2019-03-13T10:47:15.649Z,9.70
2019-03-13T10:49:48.889Z,9.60
2019-03-13T10:52:39.250Z,9.70
2019-03-13T10:55:20.794Z,9.70
2019-03-13T10:58:15.847Z,9.90
2019-03-13T11:00:53.677Z,10.00
2019-03-13T11:03:41.214Z,10.30
2019-03-13T11:06:40.729Z,10.20
2019-03-13T11:09:28.411Z,10.00
2019-03-13T11:12:16.312Z,10.00
2019-03-13T11:14:58.712Z,10.40
2019-03-13T11:17:46.321Z,10.50
2019-03-13T11:20:52.290Z,10.50
2019-03-13T11:23:51.565Z,10.40
2019-03-13T11:26:42.230Z,10.40
2019-03-13T11:29:28.929Z,9.70
2019-03-13T11:32:16.674Z,9.30
2019-03-13T11:35:10.405Z,9.60
2019-03-13T11:38:10.261Z,10.10
2019-03-13T11:40:49.729Z,10.60
2019-03-13T11:43:36.741Z,10.70
2019-03-13T11:46:33.357Z,10.80
2019-03-13T11:49:11.407Z,11.10
2019-03-13T11:51:50.314Z,11.40
2019-03-13T11:54:34.595Z,11.30
2019-03-13T11:57:09.070Z,11.20
2019-03-13T11:59:59.814Z,11.10
2019-03-13T12:02:53.480Z,11.20
2019-03-13T12:05:36.009Z,11.20
2019-03-13T12:08:11.019Z,10.90
2019-03-13T12:10:58.902Z,10.80
2019-03-13T12:13:52.431Z,10.60
2019-03-13T12:16:49.614Z,10.40
2019-03-13T12:19:29.291Z,10.40
2019-03-13T12:22:32.094Z,10.30
2019-03-13T12:25:12.131Z,10.40
2019-03-13T12:28:02.443Z,10.40
2019-03-13T12:30:36.772Z,10.40
2019-03-13T12:33:35.398Z,10.30
2019-03-13T12:36:10.768Z,10.20
2019-03-13T12:39:10.678Z,10.30
2019-03-13T12:42:05.801Z,10.30
2019-03-13T12:45:02.747Z,10.50
2019-03-13T12:47:46.551Z,10.80
2019-03-13T12:50:28.355Z,10.80
2019-03-13T12:53:03.664Z,11.00
2019-03-13T12:55:50.417Z,11.00
2019-03-13T12:58:42.888Z,11.00
2019-03-13T13:01:20.640Z,10.70
2019-03-13T13:04:05.654Z,10.80
2019-03-13T13:07:02.608Z,11.00
2019-03-13T13:09:55.835Z,10.80
2019-03-13T13:12:59.225Z,10.70
2019-03-13T13:15:45.789Z,10.50
2019-03-13T13:18:40.257Z,10.30
2019-03-13T13:21:08.298Z,10.20
2019-03-13T13:23:36.472Z,10.20
2019-03-13T13:26:09.048Z,10.20
2019-03-13T13:28:37.346Z,10.20
2019-03-13T13:31:05.234Z,10.20
2019-03-13T13:33:33.228Z,10.30
2019-03-13T13:36:01.097Z,10.20
2019-03-13T13:38:29.261Z,10.30
2019-03-13T13:40:57.460Z,10.40
2019-03-13T13:43:25.874Z,10.40
2019-03-13T13:46:09.929Z,10.40
2019-03-13T13:48:38.014Z,10.20
2019-03-13T13:51:06.171Z,10.10
2019-03-13T13:53:34.121Z,10.20
2019-03-13T13:56:02.022Z,10.30
2019-03-13T13:58:30.387Z,10.30
2019-03-13T14:00:58.579Z,10.20
2019-03-13T14:03:26.744Z,10.00
2019-03-13T14:05:55.085Z,10.00
2019-03-13T14:08:23.729Z,10.10
2019-03-13T14:10:51.769Z,10.00
2019-03-13T14:13:19.879Z,10.10
2019-03-13T14:15:52.019Z,10.10
2019-03-13T14:18:20.109Z,10.00
2019-03-13T14:20:48.172Z,9.90
2019-03-13T14:23:16.276Z,9.90
2019-03-13T14:25:44.247Z,10.00
2019-03-13T14:28:12.290Z,10.00
2019-03-13T14:30:40.385Z,10.10
2019-03-13T14:33:08.252Z,10.00
2019-03-13T14:35:36.584Z,10.00
2019-03-13T14:38:04.674Z,10.00
2019-03-13T14:40:33.051Z,9.90
2019-03-13T14:43:01.205Z,9.90
2019-03-13T14:45:29.353Z,9.80
2019-03-13T14:47:57.431Z,9.70
2019-03-13T14:50:25.644Z,9.70
2019-03-13T14:52:53.684Z,9.80
2019-03-13T14:55:23.192Z,9.70
2019-03-13T14:57:51.961Z,9.70
2019-03-13T15:00:20.546Z,9.60
2019-03-13T15:02:48.623Z,9.60
2019-03-13T15:05:17.057Z,9.60
2019-03-13T15:07:45.316Z,9.50
2019-03-13T15:10:13.889Z,9.50
2019-03-13T15:12:43.205Z,9.50
2019-03-13T15:15:12.048Z,9.40
2019-03-13T15:17:40.133Z,9.40
2019-03-13T15:20:13.051Z,9.40
2019-03-13T15:22:42.194Z,9.40
2019-03-13T15:25:14.138Z,9.40
2019-03-13T15:27:42.426Z,9.30
2019-03-13T15:30:19.217Z,9.30
2019-03-13T15:32:47.844Z,9.30
2019-03-13T15:35:16.122Z,9.30
2019-03-13T15:37:44.754Z,9.30
2019-03-13T15:40:14.823Z,9.30
2019-03-13T15:42:43.251Z,9.40
2019-03-13T15:45:14.833Z,9.40
2019-03-13T15:47:42.940Z,9.40
2019-03-13T15:50:12.073Z,9.40
2019-03-13T15:52:40.602Z,9.40
2019-03-13T15:55:10.359Z,9.40
2019-03-13T15:57:38.259Z,9.40
2019-03-13T16:00:11.705Z,9.40
2019-03-13T16:02:40.284Z,9.40
2019-03-13T16:05:08.342Z,9.30
2019-03-13T16:07:36.919Z,9.40
2019-03-13T16:10:06.410Z,9.50
2019-03-13T16:12:34.384Z,9.50
2019-03-13T16:15:02.873Z,9.40
2019-03-13T16:17:30.901Z,9.40
2019-03-13T16:19:58.812Z,9.40
2019-03-13T16:22:27.029Z,9.40
2019-03-13T16:24:55.189Z,9.50
2019-03-13T16:27:23.161Z,9.40
2019-03-13T16:29:51.547Z,9.40
2019-03-13T16:32:20.118Z,9.40
2019-03-13T16:34:48.122Z,9.40
2019-03-13T16:37:16.191Z,9.30
2019-03-13T16:39:44.322Z,9.40
2019-03-13T16:42:12.371Z,9.50
2019-03-13T16:44:40.914Z,9.40
2019-03-13T16:47:08.986Z,9.40
2019-03-13T16:49:39.134Z,9.50
2019-03-13T16:52:07.866Z,9.50
2019-03-13T16:54:36.069Z,9.40
2019-03-13T16:57:04.274Z,9.50
2019-03-13T16:59:32.884Z,9.40
2019-03-13T17:02:00.941Z,9.30
2019-03-13T17:04:29.475Z,9.40
2019-03-13T17:06:57.522Z,9.50
2019-03-13T17:09:25.895Z,9.40
2019-03-13T17:11:54.230Z,9.40
2019-03-13T17:14:22.734Z,9.40
2019-03-13T17:16:50.855Z,9.50
2019-03-13T17:19:19.320Z,9.50
2019-03-13T17:21:47.773Z,9.50
2019-03-13T17:24:15.922Z,9.40
2019-03-13T17:26:43.914Z,9.40
2019-03-13T17:29:11.967Z,9.20
2019-03-13T17:31:47.520Z,9.00
2019-03-13T17:34:15.427Z,8.80
2019-03-13T17:36:43.968Z,8.60
2019-03-13T17:39:12.544Z,8.50
2019-03-13T17:41:40.623Z,8.40
2019-03-13T17:44:08.786Z,8.50
2019-03-13T17:46:38.082Z,8.50
2019-03-13T17:49:06.579Z,8.40
2019-03-13T17:51:34.799Z,8.50
2019-03-13T17:54:03.374Z,8.50
2019-03-13T17:56:32.044Z,8.40
2019-03-13T17:59:00.481Z,8.30
2019-03-13T18:01:28.776Z,8.30
2019-03-13T18:03:57.120Z,8.20
2019-03-13T18:06:25.189Z,8.20
2019-03-13T18:08:53.275Z,8.10
2019-03-13T18:11:21.352Z,8.10
2019-03-13T18:13:49.985Z,8.00
2019-03-13T18:16:18.401Z,7.90
2019-03-13T18:18:46.671Z,7.90
2019-03-13T18:21:14.936Z,7.80
2019-03-13T18:23:43.101Z,7.60
2019-03-13T18:26:11.786Z,7.40
2019-03-13T18:28:40.346Z,7.30
2019-03-13T18:31:08.377Z,7.20
2019-03-13T18:33:36.752Z,7.20
2019-03-13T18:36:05.094Z,7.30
2019-03-13T18:38:33.821Z,7.20
2019-03-13T18:41:01.964Z,7.20
2019-03-13T18:43:30.522Z,7.10
2019-03-13T18:45:58.784Z,7.00
2019-03-13T18:48:27.380Z,7.00
2019-03-13T18:50:55.568Z,7.00
2019-03-13T18:53:23.808Z,6.80
2019-03-13T18:55:52.064Z,6.80
2019-03-13T18:58:20.400Z,6.70
2019-03-13T19:00:48.513Z,6.80
2019-03-13T19:03:16.681Z,6.80
2019-03-13T19:05:45.016Z,6.70
2019-03-13T19:08:13.045Z,6.70
2019-03-13T19:10:41.065Z,6.70
2019-03-13T19:13:09.271Z,6.80
2019-03-13T19:15:39.930Z,6.80
2019-03-13T19:18:07.369Z,6.90
2019-03-13T19:20:35.561Z,6.80
2019-03-13T19:23:03.519Z,6.90
2019-03-13T19:25:31.708Z,6.80
2019-03-13T19:27:59.817Z,6.90
2019-03-13T19:30:29.347Z,6.90
2019-03-13T19:32:57.535Z,6.90
2019-03-13T19:35:25.614Z,6.80
2019-03-13T19:37:54.605Z,6.80
2019-03-13T19:40:22.843Z,6.90
2019-03-13T19:42:51.040Z,6.80
2019-03-13T19:45:23.219Z,6.80
2019-03-13T19:47:51.573Z,6.70
2019-03-13T19:50:19.594Z,6.60
2019-03-13T19:52:47.825Z,6.70
2019-03-13T19:55:16.847Z,6.60
2019-03-13T19:57:45.601Z,6.60
2019-03-13T20:00:16.491Z,6.50
2019-03-13T20:02:44.562Z,6.40
2019-03-13T20:05:14.279Z,6.40
2019-03-13T20:07:42.441Z,6.40
2019-03-13T20:10:17.336Z,6.30
2019-03-13T20:12:45.375Z,6.40
2019-03-13T20:15:17.414Z,6.40
2019-03-13T20:17:45.841Z,6.20
2019-03-13T20:20:17.314Z,6.30
2019-03-13T20:22:46.287Z,6.20
2019-03-13T20:25:17.637Z,6.20
2019-03-13T20:27:45.237Z,6.10
2019-03-13T20:30:16.677Z,6.10
2019-03-13T20:32:44.967Z,6.10
2019-03-13T20:35:13.605Z,6.20
2019-03-13T20:37:41.970Z,6.20
2019-03-13T20:40:13.522Z,6.20
2019-03-13T20:42:44.614Z,6.20
2019-03-13T20:45:16.141Z,6.20
2019-03-13T20:47:44.678Z,6.40
2019-03-13T20:50:12.873Z,6.40
2019-03-13T20:52:41.124Z,6.50
2019-03-13T20:55:11.578Z,6.50
2019-03-13T20:57:39.579Z,6.50
2019-03-13T21:00:10.678Z,6.70
2019-03-13T21:02:38.690Z,6.70
2019-03-13T21:05:08.864Z,6.80
2019-03-13T21:07:37.137Z,6.70
2019-03-13T21:10:06.772Z,6.80
2019-03-13T21:12:35.122Z,6.90
2019-03-13T21:15:04.708Z,6.90
2019-03-13T21:17:33.413Z,6.90
2019-03-13T21:20:01.511Z,6.70
2019-03-13T21:22:29.635Z,6.20
2019-03-13T21:24:57.854Z,6.00
2019-03-13T21:27:25.779Z,6.10
2019-03-13T21:29:54.212Z,6.20
2019-03-13T21:32:22.187Z,6.10
2019-03-13T21:34:50.268Z,6.20
2019-03-13T21:37:18.388Z,6.30
2019-03-13T21:39:46.479Z,6.40
2019-03-13T21:42:14.582Z,6.40
2019-03-13T21:44:43.036Z,6.40
2019-03-13T21:47:10.976Z,6.40
2019-03-13T21:49:39.217Z,6.40
2019-03-13T21:52:07.327Z,6.30
2019-03-13T21:54:35.504Z,6.20
2019-03-13T21:57:03.565Z,6.20
2019-03-13T21:59:31.707Z,6.30
2019-03-13T22:02:00.108Z,6.30
2019-03-13T22:04:28.316Z,6.30
2019-03-13T22:06:56.760Z,6.30
2019-03-13T22:09:24.729Z,6.20
2019-03-13T22:11:52.770Z,6.20
2019-03-13T22:14:20.948Z,6.20
2019-03-13T22:16:48.873Z,6.20
2019-03-13T22:19:16.813Z,6.20
2019-03-13T22:21:45.307Z,6.10
2019-03-13T22:24:13.650Z,6.20
2019-03-13T22:27:00.982Z,6.30
2019-03-13T22:29:28.854Z,6.30
2019-03-13T22:31:56.953Z,6.30
2019-03-13T22:34:25.211Z,6.40
2019-03-13T22:36:53.339Z,6.30
2019-03-13T22:39:21.830Z,6.40
2019-03-13T22:41:49.930Z,6.40
2019-03-13T22:44:18.148Z,6.40
2019-03-13T22:46:46.298Z,6.50
2019-03-13T22:49:14.287Z,6.40
2019-03-13T22:51:42.432Z,6.40
2019-03-13T22:54:10.981Z,6.40
2019-03-13T22:56:39.136Z,6.40
2019-03-13T22:59:07.063Z,6.50
2019-03-13T23:01:37.910Z,6.60
2019-03-13T23:04:05.947Z,6.60
2019-03-13T23:06:34.253Z,6.60
2019-03-13T23:09:04.459Z,6.60
2019-03-13T23:11:32.878Z,6.50
2019-03-13T23:14:00.805Z,6.40
2019-03-13T23:16:29.929Z,6.50
2019-03-13T23:18:58.068Z,6.40
2019-03-13T23:21:26.595Z,6.50
2019-03-13T23:23:54.595Z,6.40
2019-03-13T23:26:23.461Z,6.40
2019-03-13T23:28:52.172Z,6.40
2019-03-13T23:31:20.361Z,6.40
2019-03-13T23:33:48.237Z,6.40
2019-03-13T23:36:16.174Z,6.40
2019-03-13T23:38:44.138Z,6.50
2019-03-13T23:41:12.527Z,6.50
2019-03-13T23:43:40.441Z,6.50
2019-03-13T23:46:08.353Z,6.50
2019-03-13T23:48:36.288Z,6.50
2019-03-13T23:51:04.478Z,6.50
2019-03-13T23:53:33.936Z,6.50
2019-03-13T23:56:04.005Z,6.50
2019-03-13T23:58:32.044Z,6.40
